Latest Weather Observations for South Johnstone

IDQ60801

Issued at 11:32 pm EST Tuesday 27 June 2017 (issued every 30 minutes, with the page automatically refreshed every 10 minutes)

About weather observations | Map of weather stations | Latest weather observations for QLD | Other Formats
Station Details ID: 032037 Name: SOUTH JOHNSTONE EXP STN Lat: -17.61 Lon: 146.00 Height: 18.3 m
Data from the previous 72 hours. | See also: Recent months at South Johnstone
Date/Time
EST
Temp
°C
App
Temp
°C
Dew
Point
°C
Rel
Hum
%
Delta-T
°C
Wind Press
QNH
hPa
Press
MSL
hPa
Rain since
9am
mm
Dir  Spd
km/h
Gust
km/h
Spd
kts
Gust
kts
27/11:30pm 22.2 24.2 19.9 87 1.5 S 9 17 5 9 1019.3 - 0.0
27/11:00pm 22.3 23.8 19.8 86 1.6 S 11 20 6 11 1019.5 - 0.0
27/10:30pm 22.1 24.2 20.1 88 1.3 S 9 13 5 7 1019.6 - 0.0
27/10:00pm 21.8 24.0 20.4 92 0.9 SE 9 17 5 9 1019.5 - 0.0
27/09:30pm 22.2 23.2 20.3 89 1.2 S 15 28 8 15 1019.4 - 0.0
27/09:00pm 22.3 24.1 20.3 88 1.3 S 11 19 6 10 1019.4 1019.3 0.0
27/08:30pm 22.4 24.1 20.2 87 1.4 S 11 20 6 11 1019.2 - 0.0
27/08:00pm 22.4 24.1 20.2 87 1.4 S 11 17 6 9 1018.9 - 0.0
27/07:30pm 22.4 23.7 19.2 82 2.0 S 11 20 6 11 1018.7 - 0.0
27/07:00pm 22.4 23.8 20.4 88 1.3 S 13 20 7 11 1018.6 - 0.0
27/06:30pm 22.4 24.4 19.9 86 1.6 S 9 17 5 9 1018.3 - 0.0
27/06:00pm 22.6 24.9 19.8 84 1.8 S 7 11 4 6 1018.2 1018.1 0.0
27/05:30pm 22.8 24.6 19.5 81 2.1 SSW 9 17 5 9 1018.2 - 0.0
27/05:00pm 23.1 25.3 19.7 81 2.2 S 7 11 4 6 1018.1 - 0.0
27/04:30pm 23.4 24.9 19.7 80 2.4 S 11 17 6 9 1018.0 - 0.0
27/04:00pm 23.3 25.4 20.2 83 2.0 S 9 17 5 9 1017.9 - 0.0
27/03:30pm 23.1 24.6 19.8 82 2.1 SSE 11 17 6 9 1017.8 - 0.0
27/03:00pm 23.0 24.3 20.2 84 1.8 SSE 13 20 7 11 1017.8 1017.7 0.0
27/02:30pm 23.2 24.2 19.4 79 2.4 SSE 13 19 7 10 1017.8 - 0.0
27/02:00pm 23.3 24.6 20.2 83 2.0 SE 13 22 7 12 1017.9 - 0.0
27/01:30pm 23.4 24.2 19.8 80 2.3 SE 15 26 8 14 1017.9 - 0.0
27/01:00pm 24.3 25.0 19.6 75 3.0 SE 15 24 8 13 1018.2 - 0.0
27/12:30pm 24.8 25.6 19.8 74 3.2 SE 15 24 8 13 1018.5 - 0.0
27/12:00pm 24.0 24.4 19.8 77 2.7 SSE 17 26 9 14 1018.9 1018.8 0.0
27/11:30am 24.2 24.2 19.0 72 3.3 SE 17 26 9 14 1019.0 - 0.0
27/11:00am 24.1 25.3 19.9 77 2.7 SE 13 22 7 12 1019.2 - 0.0
27/10:30am 24.6 25.4 19.1 71 3.5 SE 13 24 7 13 1019.2 - 0.0
27/10:00am 22.7 25.0 20.7 88 1.3 S 9 20 5 11 1019.4 - 0.0
27/09:30am 23.6 26.3 20.7 84 1.9 S 7 13 4 7 1019.3 - 0.0
27/09:00am 21.6 25.6 20.5 93 0.7 CALM 0 0 0 0 1019.0 1018.9 3.0
27/08:30am 20.1 23.6 19.6 97 0.3 CALM 0 0 0 0 1018.8 - 3.0
27/08:00am 19.4 22.6 18.9 97 0.3 CALM 0 0 0 0 1018.7 - 2.8
27/07:30am 19.1 22.3 18.8 98 0.2 CALM 0 0 0 0 1018.3 - 2.8
27/07:00am 18.9 21.9 18.4 97 0.3 CALM 0 0 0 0 1018.2 - 2.8
27/06:30am 18.7 21.2 18.2 97 0.3 W 2 7 1 4 1018.1 - 2.8
27/06:00am 18.6 20.8 18.3 98 0.2 WNW 4 9 2 5 1018.0 1017.9 2.8
27/05:30am 18.8 20.7 18.5 98 0.2 W 6 7 3 4 1018.0 - 2.8
27/05:00am 19.1 22.1 18.5 96 0.4 CALM 0 0 0 0 1018.0 - 2.8
27/04:30am 19.1 21.7 18.5 96 0.4 WSW 2 6 1 3 1018.0 - 2.8
27/04:00am 19.4 20.7 18.4 94 0.6 WSW 9 19 5 10 1018.0 - 2.8
27/03:30am 19.6 22.9 19.0 96 0.4 CALM 0 0 0 0 1018.0 - 2.8
27/03:00am 19.7 22.9 18.9 95 0.5 CALM 0 0 0 0 1018.1 1018.0 2.8
27/02:30am 19.8 20.5 18.8 94 0.6 SE 13 20 7 11 1018.5 - 2.6
27/02:00am 20.9 22.9 19.2 90 1.1 ESE 7 15 4 8 1018.5 - 2.0
27/01:30am 21.5 22.9 18.6 83 1.8 SSW 9 13 5 7 1018.6 - 1.0
27/01:00am 21.2 22.9 18.6 85 1.6 S 7 11 4 6 1018.9 - 1.0
27/12:30am 21.4 23.3 18.9 86 1.6 S 7 13 4 7 1019.1 - 1.0
27/12:00am 21.4 23.3 18.9 86 1.6 S 7 11 4 6 1019.2 1019.1 1.0
 
Date/Time
EST
Temp
°C
App
Temp
°C
Dew
Point
°C
Rel
Hum
%
Delta-T
°C
Wind Press
QNH
hPa
Press
MSL
hPa
Rain since
9am
mm
Dir  Spd
km/h
Gust
km/h
Spd
kts
Gust
kts
26/11:30pm 21.4 23.2 18.7 84 1.7 S 7 11 4 6 1019.4 - 1.0
26/11:00pm 21.8 23.2 18.6 82 2.0 S 9 15 5 8 1019.6 - 1.0
26/10:30pm 21.6 23.5 18.9 84 1.7 SSE 7 13 4 7 1019.5 - 1.0
26/10:00pm 21.8 22.9 18.9 83 1.8 S 11 17 6 9 1019.6 - 1.0
26/09:30pm 21.8 23.3 18.8 83 1.9 S 9 19 5 10 1019.5 - 1.0
26/09:00pm 21.6 23.0 18.7 83 1.8 S 9 15 5 8 1019.2 1019.1 1.0
26/08:30pm 21.4 23.3 18.9 86 1.6 S 7 13 4 7 1018.9 - 1.0
26/08:00pm 21.3 22.8 18.9 86 1.5 S 9 15 5 8 1018.8 - 1.0
26/07:30pm 20.9 24.0 19.6 92 0.8 SE 2 9 1 5 1018.4 - 1.0
26/07:00pm 20.9 24.5 19.8 93 0.7 CALM 0 0 0 0 1018.3 - 1.0
26/06:30pm 21.2 23.5 19.9 92 0.8 SSE 7 13 4 7 1018.1 - 1.0
26/06:00pm 21.6 23.5 19.7 89 1.2 SSE 9 15 5 8 1017.8 1017.7 0.6
26/05:30pm 21.7 23.2 19.7 88 1.3 SSE 11 15 6 8 1017.8 - 0.6
26/05:00pm 21.7 22.8 19.7 88 1.3 S 13 19 7 10 1017.6 - 0.4
26/04:30pm 22.0 22.5 19.3 85 1.7 S 15 26 8 14 1017.6 - 0.4
26/04:00pm 22.6 23.6 19.5 82 2.0 SSE 13 20 7 11 1017.4 - 0.2
26/03:30pm 23.4 24.6 19.0 76 2.8 SSE 11 20 6 11 1017.2 - 0.2
26/03:00pm 23.3 23.2 18.7 75 2.9 SSE 17 26 9 14 1017.3 1017.2 0.2
26/02:30pm 23.5 23.8 18.8 75 3.0 SSE 15 24 8 13 1017.3 - 0.2
26/02:00pm 23.6 23.6 18.2 71 3.4 SE 15 26 8 14 1017.4 - 0.2
26/01:30pm 23.7 24.4 18.8 74 3.1 SSE 13 26 7 14 1017.7 - 0.2
26/01:00pm 23.9 24.5 18.7 72 3.3 SE 13 20 7 11 1018.1 - 0.2
26/12:30pm 24.1 24.4 18.7 72 3.4 SE 15 24 8 13 1018.4 - 0.2
26/12:00pm 24.4 24.8 18.9 71 3.5 SE 15 24 8 13 1018.8 1018.7 0.2
26/11:30am 23.5 23.9 19.1 76 2.8 SSE 15 22 8 12 1019.0 - 0.2
26/11:00am 23.0 24.9 20.5 86 1.6 S 11 17 6 9 1019.1 - 0.2
26/10:30am 22.2 23.7 19.0 82 2.0 SSE 9 17 5 9 1019.4 - 0.0
26/10:00am 22.5 23.7 19.0 80 2.2 S 11 20 6 11 1019.3 - 0.0
26/09:30am 21.9 23.9 19.2 85 1.7 SSE 7 15 4 8 1019.1 - 0.0
26/09:00am 20.1 23.4 19.0 93 0.7 CALM 0 6 0 3 1018.8 1018.7 0.2
26/08:30am 18.6 21.5 18.1 97 0.3 CALM 0 7 0 4 1018.5 - 0.2
26/08:00am 17.9 20.4 17.2 96 0.4 CALM 0 0 0 0 1018.2 - 0.2
26/07:30am 17.2 19.6 16.9 98 0.2 CALM 0 0 0 0 1017.8 - 0.2
26/07:00am 16.9 19.1 16.6 98 0.2 CALM 0 7 0 4 1017.6 - 0.2
26/06:30am 16.9 18.4 16.6 98 0.2 W 4 7 2 4 1017.3 - 0.2
26/06:00am 16.9 17.9 16.4 97 0.3 WSW 6 9 3 5 1017.0 1016.9 0.2
26/05:30am 17.0 19.2 16.5 97 0.3 CALM 0 0 0 0 1016.9 - 0.2
26/05:00am 17.1 19.4 16.8 98 0.2 CALM 0 6 0 3 1016.9 - 0.2
26/04:30am 17.2 19.1 16.7 97 0.3 N 2 7 1 4 1016.8 - 0.2
26/04:00am 17.1 19.3 16.6 97 0.3 CALM 0 0 0 0 1016.6 - 0.2
26/03:30am 16.9 19.0 16.2 96 0.4 CALM 0 0 0 0 1016.9 - 0.2
26/03:00am 17.1 19.3 16.6 97 0.3 CALM 0 2 0 1 1017.0 1016.9 0.2
26/02:30am 17.0 19.2 16.5 97 0.3 CALM 0 0 0 0 1017.1 - 0.2
26/02:00am 17.0 19.1 16.2 95 0.5 CALM 0 4 0 2 1017.3 - 0.0
26/01:30am 16.9 18.9 16.1 95 0.5 CALM 0 0 0 0 1017.5 - 0.0
26/01:00am 16.9 18.9 16.1 95 0.5 CALM 0 4 0 2 1017.8 - 0.0
26/12:30am 16.8 17.1 15.9 94 0.5 WSW 9 11 5 6 1017.9 - 0.0
26/12:00am 16.8 17.1 16.1 96 0.4 W 9 13 5 7 1018.1 1018.0 0.0
 
Date/Time
EST
Temp
°C
App
Temp
°C
Dew
Point
°C
Rel
Hum
%
Delta-T
°C
Wind Press
QNH
hPa
Press
MSL
hPa
Rain since
9am
mm
Dir  Spd
km/h
Gust
km/h
Spd
kts
Gust
kts
25/11:30pm 17.0 18.4 16.3 96 0.4 W 4 9 2 5 1018.3 - 0.0
25/11:00pm 17.2 19.0 16.5 96 0.4 W 2 7 1 4 1018.2 - 0.0
25/10:30pm 17.5 19.4 16.8 96 0.4 W 2 9 1 5 1018.4 - 0.0
25/10:00pm 17.8 18.9 17.0 95 0.5 W 7 13 4 7 1018.5 - 0.0
25/09:30pm 18.2 18.7 17.5 96 0.4 WSW 11 15 6 8 1018.4 - 0.0
25/09:00pm 18.7 19.3 17.7 94 0.6 WSW 11 13 6 7 1018.2 1018.1 0.0
25/08:30pm 19.1 19.8 18.0 93 0.7 WSW 11 15 6 8 1018.1 - 0.0
25/08:00pm 19.8 21.0 18.2 90 1.0 WSW 9 11 5 6 1017.7 - 0.0
25/07:30pm 20.8 23.4 18.4 86 1.5 SW 2 9 1 5 1017.4 - 0.0
25/07:00pm 21.4 23.5 18.0 81 2.1 SSW 4 9 2 5 1016.9 - 0.0
25/06:30pm 21.5 23.2 18.1 81 2.1 SSW 6 9 3 5 1016.7 - 0.0
25/06:00pm 21.7 24.0 17.7 78 2.5 SSW 2 6 1 3 1016.4 1016.3 0.0
25/05:30pm 22.1 24.0 17.7 76 2.7 SW 4 9 2 5 1016.3 - 0.0
25/05:00pm 22.4 23.3 17.5 74 3.0 SSW 9 17 5 9 1016.0 - 0.0
25/04:30pm 22.8 23.4 17.6 72 3.2 SSE 11 20 6 11 1016.0 - 0.0
25/04:00pm 23.0 22.2 17.2 70 3.6 SE 17 28 9 15 1015.9 - 0.0
25/03:30pm 23.3 23.1 17.5 70 3.6 SE 15 24 8 13 1015.8 - 0.0
25/03:00pm 23.6 23.4 18.4 72 3.3 SE 17 28 9 15 1015.7 1015.6 0.0
25/02:30pm 24.2 23.9 18.3 69 3.7 SSE 17 28 9 15 1015.7 - 0.0
25/02:00pm 23.1 23.0 17.8 72 3.3 SSE 15 20 8 11 1015.9 - 0.0
25/01:30pm 24.2 24.6 18.2 69 3.8 S 13 22 7 12 1016.0 - 0.0
25/01:00pm 23.6 23.7 17.5 68 3.8 S 13 22 7 12 1016.4 - 0.0
25/12:30pm 24.5 25.4 18.3 68 3.9 S 11 17 6 9 1016.7 - 0.0
25/12:00pm 24.0 24.3 17.9 68 3.8 S 13 20 7 11 1017.3 1017.2 0.0
25/11:30am 23.8 24.8 18.6 72 3.3 S 11 17 6 9 1017.7 - 0.0
25/11:00am 23.1 23.5 18.1 73 3.1 S 13 19 7 10 1018.0 - 0.0
25/10:30am 23.2 24.3 17.9 72 3.3 SSE 9 15 5 8 1018.1 - 0.0
25/10:00am 22.6 24.2 18.3 76 2.7 S 7 11 4 6 1018.1 - 0.0
25/09:30am 22.2 25.5 19.0 82 2.0 CALM 0 6 0 3 1018.1 - 0.0
25/09:00am 20.4 23.6 18.8 90 1.0 CALM 0 0 0 0 1018.0 1017.9 4.2
25/08:30am 19.5 22.5 18.4 93 0.7 CALM 0 0 0 0 1017.8 - 4.2
25/08:00am 18.8 21.3 18.2 96 0.4 WSW 2 6 1 3 1017.3 - 4.2
25/07:30am 18.6 21.5 18.1 97 0.3 CALM 0 0 0 0 1017.1 - 4.2
25/07:00am 18.2 20.8 17.5 96 0.4 CALM 0 0 0 0 1016.7 - 4.2
25/06:30am 18.3 19.8 17.5 95 0.5 SW 6 9 3 5 1016.4 - 4.2
25/06:00am 18.2 19.6 17.4 95 0.5 WSW 6 11 3 6 1016.1 1016.0 4.2
25/05:30am 18.5 19.4 17.5 94 0.6 WSW 9 13 5 7 1015.9 - 4.2
25/05:00am 18.6 19.9 17.6 94 0.6 WSW 7 15 4 8 1015.8 - 4.2
25/04:30am 18.6 19.7 17.9 96 0.4 WSW 9 11 5 6 1016.0 - 4.0
25/04:00am 18.7 21.1 18.0 96 0.4 NNW 2 7 1 4 1016.0 - 4.0
25/03:30am 18.9 20.6 18.1 95 0.5 SW 6 11 3 6 1016.1 - 4.0
25/03:00am 19.0 20.1 18.0 94 0.6 SSW 9 13 5 7 1016.3 1016.2 3.8
25/02:30am 18.8 20.5 18.0 95 0.5 SE 6 9 3 5 1016.4 - 1.4
25/02:00am 18.5 19.9 17.7 95 0.5 WSW 7 13 4 7 1016.3 - 0.6
25/01:30am 18.7 20.7 17.9 95 0.5 W 4 11 2 6 1016.7 - 0.6
25/01:00am 18.9 21.8 18.1 95 0.5 CALM 0 0 0 0 1016.9 - 0.6
25/12:30am 19.0 21.9 18.2 95 0.5 CALM 0 0 0 0 1017.1 - 0.6
25/12:00am 19.0 21.2 18.4 96 0.4 WNW 4 7 2 4 1017.2 1017.1 0.6

Other Formats:

Comma delimited format used in spreadsheet applications
http://www.bom.gov.au/fwo/IDQ60801/IDQ60801.95292.axf

JavaScript Object Notation format (JSON) in row-major order
http://www.bom.gov.au/fwo/IDQ60801/IDQ60801.95292.json